sensor_id;sensor_type;location;lat;lon;timestamp;pressure;altitude;pressure_sealevel;temperature
79148;BMP280;68562;51.600;6.524;2023-12-04T00:00:00;1012.9;;;5.4
79148;BMP280;68562;51.600;6.524;2023-12-04T00:05:00;1012.9;;;5.5
79148;BMP280;68562;51.600;6.524;2023-12-04T00:10:00;1012.8;;;5.5
79148;BMP280;68562;51.600;6.524;2023-12-04T00:15:00;1012.7;;;5.5
79148;BMP280;68562;51.600;6.524;2023-12-04T00:20:00;1012.6;;;5.5
79148;BMP280;68562;51.600;6.524;2023-12-04T00:25:00;1012.6;;;5.6
79148;BMP280;68562;51.600;6.524;2023-12-04T00:30:00;1012.5;;;5.5
79148;BMP280;68562;51.600;6.524;2023-12-04T00:35:00;1012.4;;;5.5
79148;BMP280;68562;51.600;6.524;2023-12-04T00:40:00;1012.3;;;5.5
79148;BMP280;68562;51.600;6.524;2023-12-04T00:45:01;1012.3;;;5.7
79148;BMP280;68562;51.600;6.524;2023-12-04T00:50:00;1012.3;;;5.6
79148;BMP280;68562;51.600;6.524;2023-12-04T00:55:00;1012.2;;;5.6
79148;BMP280;68562;51.600;6.524;2023-12-04T01:00:00;1012.2;;;5.6
79148;BMP280;68562;51.600;6.524;2023-12-04T01:05:00;1012.2;;;5.7
79148;BMP280;68562;51.600;6.524;2023-12-04T01:10:00;1012.2;;;5.7
79148;BMP280;68562;51.600;6.524;2023-12-04T01:15:00;1012.2;;;5.7
79148;BMP280;68562;51.600;6.524;2023-12-04T01:20:00;1012.1;;;5.7
79148;BMP280;68562;51.600;6.524;2023-12-04T01:25:00;1012.1;;;5.8
79148;BMP280;68562;51.600;6.524;2023-12-04T01:30:00;1012.0;;;5.7
79148;BMP280;68562;51.600;6.524;2023-12-04T01:35:01;1012.0;;;5.8
79148;BMP280;68562;51.600;6.524;2023-12-04T01:40:00;1011.8;;;5.6
79148;BMP280;68562;51.600;6.524;2023-12-04T01:45:00;1011.9;;;5.7
79148;BMP280;68562;51.600;6.524;2023-12-04T01:50:00;1011.8;;;5.7
79148;BMP280;68562;51.600;6.524;2023-12-04T01:55:00;1011.8;;;5.7
79148;BMP280;68562;51.600;6.524;2023-12-04T02:00:00;1011.7;;;5.7
79148;BMP280;68562;51.600;6.524;2023-12-04T02:05:01;1011.6;;;5.8
79148;BMP280;68562;51.600;6.524;2023-12-04T02:10:00;1011.6;;;5.8
79148;BMP280;68562;51.600;6.524;2023-12-04T02:15:00;1011.6;;;5.8
79148;BMP280;68562;51.600;6.524;2023-12-04T02:20:00;1011.6;;;5.8
79148;BMP280;68562;51.600;6.524;2023-12-04T02:25:00;1011.5;;;5.8
79148;BMP280;68562;51.600;6.524;2023-12-04T02:30:01;1011.4;;;5.8
79148;BMP280;68562;51.600;6.524;2023-12-04T02:35:02;1011.3;;;5.7
79148;BMP280;68562;51.600;6.524;2023-12-04T02:40:00;1011.4;;;5.6
79148;BMP280;68562;51.600;6.524;2023-12-04T02:45:00;1011.2;;;5.6
79148;BMP280;68562;51.600;6.524;2023-12-04T02:50:00;1011.1;;;5.7
79148;BMP280;68562;51.600;6.524;2023-12-04T02:55:00;1011.1;;;5.7
79148;BMP280;68562;51.600;6.524;2023-12-04T03:00:00;1011.1;;;5.6
79148;BMP280;68562;51.600;6.524;2023-12-04T03:05:00;1011.0;;;5.6
79148;BMP280;68562;51.600;6.524;2023-12-04T03:10:00;1010.8;;;5.7
79148;BMP280;68562;51.600;6.524;2023-12-04T03:15:00;1010.8;;;5.6
79148;BMP280;68562;51.600;6.524;2023-12-04T03:20:00;1010.8;;;5.7
79148;BMP280;68562;51.600;6.524;2023-12-04T03:25:00;1010.7;;;5.7
79148;BMP280;68562;51.600;6.524;2023-12-04T03:30:00;1010.7;;;5.7
79148;BMP280;68562;51.600;6.524;2023-12-04T03:35:00;1010.6;;;5.7
79148;BMP280;68562;51.600;6.524;2023-12-04T03:40:01;1010.6;;;5.7
79148;BMP280;68562;51.600;6.524;2023-12-04T03:45:00;1010.5;;;5.8
79148;BMP280;68562;51.600;6.524;2023-12-04T03:50:00;1010.5;;;5.8
79148;BMP280;68562;51.600;6.524;2023-12-04T03:55:00;1010.4;;;5.8
79148;BMP280;68562;51.600;6.524;2023-12-04T04:00:00;1010.3;;;5.6
79148;BMP280;68562;51.600;6.524;2023-12-04T04:05:00;1010.2;;;5.6
79148;BMP280;68562;51.600;6.524;2023-12-04T04:10:00;1010.2;;;5.7
79148;BMP280;68562;51.600;6.524;2023-12-04T04:15:00;1010.1;;;5.6
79148;BMP280;68562;51.600;6.524;2023-12-04T04:20:00;1010.2;;;5.6
79148;BMP280;68562;51.600;6.524;2023-12-04T04:25:00;1010.1;;;5.4
79148;BMP280;68562;51.600;6.524;2023-12-04T04:30:00;1010.0;;;5.6
79148;BMP280;68562;51.600;6.524;2023-12-04T04:35:00;1010.0;;;5.6
79148;BMP280;68562;51.600;6.524;2023-12-04T04:40:00;1009.9;;;5.6
79148;BMP280;68562;51.600;6.524;2023-12-04T04:45:00;1009.9;;;5.6
79148;BMP280;68562;51.600;6.524;2023-12-04T04:50:00;1009.8;;;5.7
79148;BMP280;68562;51.600;6.524;2023-12-04T04:55:00;1009.7;;;5.7
79148;BMP280;68562;51.600;6.524;2023-12-04T05:00:00;1009.7;;;5.6
79148;BMP280;68562;51.600;6.524;2023-12-04T05:05:02;1009.6;;;5.6
79148;BMP280;68562;51.600;6.524;2023-12-04T05:10:00;1009.7;;;5.6
79148;BMP280;68562;51.600;6.524;2023-12-04T05:15:00;1009.4;;;5.4
79148;BMP280;68562;51.600;6.524;2023-12-04T05:20:00;1009.5;;;5.6
79148;BMP280;68562;51.600;6.524;2023-12-04T05:25:00;1009.5;;;5.6
79148;BMP280;68562;51.600;6.524;2023-12-04T05:30:00;1009.4;;;5.6
79148;BMP280;68562;51.600;6.524;2023-12-04T05:35:00;1009.5;;;5.6
79148;BMP280;68562;51.600;6.524;2023-12-04T05:40:00;1009.4;;;5.7
79148;BMP280;68562;51.600;6.524;2023-12-04T05:45:00;1009.4;;;5.7
79148;BMP280;68562;51.600;6.524;2023-12-04T05:50:00;1009.3;;;5.7
79148;BMP280;68562;51.600;6.524;2023-12-04T05:55:00;1009.4;;;5.8
79148;BMP280;68562;51.600;6.524;2023-12-04T06:00:00;1009.3;;;5.8
79148;BMP280;68562;51.600;6.524;2023-12-04T06:05:00;1009.2;;;5.7
79148;BMP280;68562;51.600;6.524;2023-12-04T06:10:00;1009.1;;;5.8
79148;BMP280;68562;51.600;6.524;2023-12-04T06:15:00;1009.1;;;5.9
79148;BMP280;68562;51.600;6.524;2023-12-04T06:20:00;1009.0;;;5.8
79148;BMP280;68562;51.600;6.524;2023-12-04T06:25:00;1008.9;;;5.9
79148;BMP280;68562;51.600;6.524;2023-12-04T06:30:00;1008.8;;;5.9
79148;BMP280;68562;51.600;6.524;2023-12-04T06:35:00;1008.8;;;5.9
79148;BMP280;68562;51.600;6.524;2023-12-04T06:40:00;1008.7;;;5.9
79148;BMP280;68562;51.600;6.524;2023-12-04T06:45:01;1008.7;;;6.1
79148;BMP280;68562;51.600;6.524;2023-12-04T06:50:00;1008.6;;;6.0
79148;BMP280;68562;51.600;6.524;2023-12-04T06:55:00;1008.5;;;5.9
79148;BMP280;68562;51.600;6.524;2023-12-04T07:00:00;1008.5;;;6.1
79148;BMP280;68562;51.600;6.524;2023-12-04T07:05:00;1008.4;;;6.0
79148;BMP280;68562;51.600;6.524;2023-12-04T07:10:00;1008.5;;;6.0
79148;BMP280;68562;51.600;6.524;2023-12-04T07:15:00;1008.3;;;6.0
79148;BMP280;68562;51.600;6.524;2023-12-04T07:20:00;1008.2;;;6.2
79148;BMP280;68562;51.600;6.524;2023-12-04T07:25:00;1008.2;;;6.3
79148;BMP280;68562;51.600;6.524;2023-12-04T07:30:00;1008.2;;;6.3
79148;BMP280;68562;51.600;6.524;2023-12-04T07:35:00;1008.0;;;6.3
79148;BMP280;68562;51.600;6.524;2023-12-04T07:40:00;1008.0;;;6.3
79148;BMP280;68562;51.600;6.524;2023-12-04T07:45:00;1008.0;;;6.3
79148;BMP280;68562;51.600;6.524;2023-12-04T07:50:00;1008.0;;;6.3
79148;BMP280;68562;51.600;6.524;2023-12-04T07:55:00;1007.9;;;6.3
79148;BMP280;68562;51.600;6.524;2023-12-04T08:00:00;1007.8;;;6.2
79148;BMP280;68562;51.600;6.524;2023-12-04T08:05:00;1007.8;;;6.0
79148;BMP280;68562;51.600;6.524;2023-12-04T08:10:00;1007.7;;;5.9
79148;BMP280;68562;51.600;6.524;2023-12-04T08:15:00;1007.8;;;6.0
79148;BMP280;68562;51.600;6.524;2023-12-04T08:20:00;1007.9;;;6.1
79148;BMP280;68562;51.600;6.524;2023-12-04T08:25:00;1007.9;;;6.2
79148;BMP280;68562;51.600;6.524;2023-12-04T08:30:00;1007.9;;;6.1
79148;BMP280;68562;51.600;6.524;2023-12-04T08:35:00;1007.8;;;6.2
79148;BMP280;68562;51.600;6.524;2023-12-04T08:40:00;1007.7;;;6.2
79148;BMP280;68562;51.600;6.524;2023-12-04T08:45:00;1007.7;;;6.2
79148;BMP280;68562;51.600;6.524;2023-12-04T08:50:00;1007.6;;;6.0
79148;BMP280;68562;51.600;6.524;2023-12-04T08:55:00;1007.6;;;6.2
79148;BMP280;68562;51.600;6.524;2023-12-04T09:00:00;1007.6;;;6.2
79148;BMP280;68562;51.600;6.524;2023-12-04T09:05:00;1007.6;;;6.3
79148;BMP280;68562;51.600;6.524;2023-12-04T09:10:00;1007.5;;;6.5
79148;BMP280;68562;51.600;6.524;2023-12-04T09:15:00;1007.4;;;6.6
79148;BMP280;68562;51.600;6.524;2023-12-04T09:20:00;1007.3;;;6.6
79148;BMP280;68562;51.600;6.524;2023-12-04T09:25:00;1007.1;;;6.7
79148;BMP280;68562;51.600;6.524;2023-12-04T09:30:01;1007.1;;;6.9
79148;BMP280;68562;51.600;6.524;2023-12-04T09:35:00;1007.0;;;7.0
79148;BMP280;68562;51.600;6.524;2023-12-04T09:40:00;1007.0;;;6.9
79148;BMP280;68562;51.600;6.524;2023-12-04T09:45:01;1007.0;;;7.0
79148;BMP280;68562;51.600;6.524;2023-12-04T09:50:00;1006.9;;;7.1
79148;BMP280;68562;51.600;6.524;2023-12-04T09:55:00;1006.8;;;7.2
79148;BMP280;68562;51.600;6.524;2023-12-04T10:00:02;1006.8;;;7.2
79148;BMP280;68562;51.600;6.524;2023-12-04T10:05:00;1006.8;;;7.3
79148;BMP280;68562;51.600;6.524;2023-12-04T10:10:00;1006.7;;;7.2
79148;BMP280;68562;51.600;6.524;2023-12-04T10:15:05;1006.7;;;7.2
79148;BMP280;68562;51.600;6.524;2023-12-04T10:20:04;1006.6;;;7.2
79148;BMP280;68562;51.600;6.524;2023-12-04T10:25:14;1006.5;;;7.1
79148;BMP280;68562;51.600;6.524;2023-12-04T10:30:01;1006.5;;;7.2
79148;BMP280;68562;51.600;6.524;2023-12-04T10:35:00;1006.4;;;7.2
79148;BMP280;68562;51.600;6.524;2023-12-04T10:40:00;1006.4;;;7.2
79148;BMP280;68562;51.600;6.524;2023-12-04T10:45:00;1006.3;;;7.3
79148;BMP280;68562;51.600;6.524;2023-12-04T10:50:01;1006.2;;;7.3
79148;BMP280;68562;51.600;6.524;2023-12-04T10:55:00;1006.1;;;7.4
79148;BMP280;68562;51.600;6.524;2023-12-04T11:00:02;1006.1;;;7.3
79148;BMP280;68562;51.600;6.524;2023-12-04T11:05:04;1006.0;;;7.3
79148;BMP280;68562;51.600;6.524;2023-12-04T11:10:00;1006.0;;;7.4
79148;BMP280;68562;51.600;6.524;2023-12-04T11:15:02;1006.1;;;7.1
79148;BMP280;68562;51.600;6.524;2023-12-04T11:20:05;1006.0;;;7.2
79148;BMP280;68562;51.600;6.524;2023-12-04T11:25:01;1005.9;;;7.2
79148;BMP280;68562;51.600;6.524;2023-12-04T11:30:01;1005.8;;;7.4
79148;BMP280;68562;51.600;6.524;2023-12-04T11:35:00;1005.7;;;7.3
79148;BMP280;68562;51.600;6.524;2023-12-04T11:40:03;1005.7;;;7.4
79148;BMP280;68562;51.600;6.524;2023-12-04T11:45:00;1005.5;;;7.3
79148;BMP280;68562;51.600;6.524;2023-12-04T11:50:00;1005.6;;;7.2
79148;BMP280;68562;51.600;6.524;2023-12-04T11:55:02;1005.5;;;7.3
79148;BMP280;68562;51.600;6.524;2023-12-04T12:00:11;1005.4;;;7.3
79148;BMP280;68562;51.600;6.524;2023-12-04T12:05:00;1005.4;;;7.2
79148;BMP280;68562;51.600;6.524;2023-12-04T12:10:00;1005.3;;;7.4
79148;BMP280;68562;51.600;6.524;2023-12-04T12:15:00;1005.3;;;7.4
79148;BMP280;68562;51.600;6.524;2023-12-04T12:20:00;1005.2;;;7.5
79148;BMP280;68562;51.600;6.524;2023-12-04T12:25:00;1005.1;;;7.5
79148;BMP280;68562;51.600;6.524;2023-12-04T12:30:00;1004.9;;;7.2
79148;BMP280;68562;51.600;6.524;2023-12-04T12:35:00;1004.9;;;7.4
79148;BMP280;68562;51.600;6.524;2023-12-04T12:40:00;1004.7;;;7.4
79148;BMP280;68562;51.600;6.524;2023-12-04T12:45:01;1004.7;;;7.4
79148;BMP280;68562;51.600;6.524;2023-12-04T12:50:00;1004.6;;;7.5
79148;BMP280;68562;51.600;6.524;2023-12-04T12:55:00;1004.5;;;7.5
79148;BMP280;68562;51.600;6.524;2023-12-04T13:00:00;1004.4;;;7.5
79148;BMP280;68562;51.600;6.524;2023-12-04T13:05:00;1004.3;;;7.6
79148;BMP280;68562;51.600;6.524;2023-12-04T13:10:00;1004.2;;;7.5
79148;BMP280;68562;51.600;6.524;2023-12-04T13:15:00;1004.2;;;7.4
79148;BMP280;68562;51.600;6.524;2023-12-04T13:20:00;1004.0;;;7.2
79148;BMP280;68562;51.600;6.524;2023-12-04T13:25:00;1003.7;;;7.3
79148;BMP280;68562;51.600;6.524;2023-12-04T13:30:00;1004.0;;;7.4
79148;BMP280;68562;51.600;6.524;2023-12-04T13:35:00;1004.0;;;7.5
79148;BMP280;68562;51.600;6.524;2023-12-04T13:40:00;1004.0;;;7.5
79148;BMP280;68562;51.600;6.524;2023-12-04T13:45:00;1003.8;;;7.5
79148;BMP280;68562;51.600;6.524;2023-12-04T13:50:00;1003.8;;;7.3
79148;BMP280;68562;51.600;6.524;2023-12-04T13:55:00;1003.8;;;7.3
79148;BMP280;68562;51.600;6.524;2023-12-04T14:00:00;1003.6;;;7.2
79148;BMP280;68562;51.600;6.524;2023-12-04T14:05:00;1003.5;;;7.2
79148;BMP280;68562;51.600;6.524;2023-12-04T14:10:00;1003.5;;;7.1
79148;BMP280;68562;51.600;6.524;2023-12-04T14:15:00;1003.3;;;7.4
79148;BMP280;68562;51.600;6.524;2023-12-04T14:20:00;1003.4;;;7.2
79148;BMP280;68562;51.600;6.524;2023-12-04T14:25:00;1003.3;;;7.4
79148;BMP280;68562;51.600;6.524;2023-12-04T14:30:00;1003.3;;;7.2
79148;BMP280;68562;51.600;6.524;2023-12-04T14:35:00;1003.3;;;7.3
79148;BMP280;68562;51.600;6.524;2023-12-04T14:40:00;1003.2;;;7.6
79148;BMP280;68562;51.600;6.524;2023-12-04T14:45:00;1003.0;;;7.6
79148;BMP280;68562;51.600;6.524;2023-12-04T14:50:00;1003.0;;;7.5
79148;BMP280;68562;51.600;6.524;2023-12-04T14:55:00;1002.9;;;7.5
79148;BMP280;68562;51.600;6.524;2023-12-04T15:00:00;1002.7;;;7.5
79148;BMP280;68562;51.600;6.524;2023-12-04T15:05:00;1002.7;;;7.6
79148;BMP280;68562;51.600;6.524;2023-12-04T15:10:00;1002.8;;;7.6
79148;BMP280;68562;51.600;6.524;2023-12-04T15:15:00;1002.7;;;7.5
79148;BMP280;68562;51.600;6.524;2023-12-04T15:20:00;1002.7;;;7.5
79148;BMP280;68562;51.600;6.524;2023-12-04T15:25:00;1002.7;;;7.6
79148;BMP280;68562;51.600;6.524;2023-12-04T15:30:00;1002.6;;;7.6
79148;BMP280;68562;51.600;6.524;2023-12-04T15:35:00;1002.6;;;7.5
79148;BMP280;68562;51.600;6.524;2023-12-04T15:40:00;1002.6;;;7.6
79148;BMP280;68562;51.600;6.524;2023-12-04T15:45:00;1002.5;;;7.5
79148;BMP280;68562;51.600;6.524;2023-12-04T15:50:00;1002.6;;;7.7
79148;BMP280;68562;51.600;6.524;2023-12-04T15:55:00;1002.4;;;7.5
79148;BMP280;68562;51.600;6.524;2023-12-04T16:00:00;1002.4;;;7.6
79148;BMP280;68562;51.600;6.524;2023-12-04T16:05:00;1002.4;;;7.4
79148;BMP280;68562;51.600;6.524;2023-12-04T16:10:00;1002.3;;;7.2
79148;BMP280;68562;51.600;6.524;2023-12-04T16:15:00;1002.2;;;6.9
79148;BMP280;68562;51.600;6.524;2023-12-04T16:20:00;1002.2;;;7.2
79148;BMP280;68562;51.600;6.524;2023-12-04T16:25:00;1002.1;;;6.9
79148;BMP280;68562;51.600;6.524;2023-12-04T16:30:00;1002.1;;;6.8
79148;BMP280;68562;51.600;6.524;2023-12-04T16:35:00;1002.1;;;6.8
79148;BMP280;68562;51.600;6.524;2023-12-04T16:40:00;1002.1;;;6.9
79148;BMP280;68562;51.600;6.524;2023-12-04T16:45:00;1002.1;;;7.1
79148;BMP280;68562;51.600;6.524;2023-12-04T16:50:00;1002.0;;;7.1
79148;BMP280;68562;51.600;6.524;2023-12-04T16:55:00;1001.9;;;7.0
79148;BMP280;68562;51.600;6.524;2023-12-04T17:00:00;1001.9;;;7.0
79148;BMP280;68562;51.600;6.524;2023-12-04T17:05:00;1001.8;;;6.8
79148;BMP280;68562;51.600;6.524;2023-12-04T17:10:00;1001.7;;;6.8
79148;BMP280;68562;51.600;6.524;2023-12-04T17:15:00;1001.8;;;6.7
79148;BMP280;68562;51.600;6.524;2023-12-04T17:20:00;1001.7;;;6.6
79148;BMP280;68562;51.600;6.524;2023-12-04T17:25:00;1001.6;;;6.7
79148;BMP280;68562;51.600;6.524;2023-12-04T17:30:00;1001.6;;;7.0
79148;BMP280;68562;51.600;6.524;2023-12-04T17:35:00;1001.5;;;6.8
79148;BMP280;68562;51.600;6.524;2023-12-04T17:40:00;1001.4;;;6.9
79148;BMP280;68562;51.600;6.524;2023-12-04T17:45:01;1001.4;;;6.6
79148;BMP280;68562;51.600;6.524;2023-12-04T17:50:00;1001.4;;;6.8
79148;BMP280;68562;51.600;6.524;2023-12-04T17:55:00;1001.4;;;6.8
79148;BMP280;68562;51.600;6.524;2023-12-04T18:00:00;1001.3;;;6.9
79148;BMP280;68562;51.600;6.524;2023-12-04T18:05:00;1001.3;;;7.0
79148;BMP280;68562;51.600;6.524;2023-12-04T18:10:01;1001.1;;;7.1
79148;BMP280;68562;51.600;6.524;2023-12-04T18:15:00;1001.1;;;7.0
79148;BMP280;68562;51.600;6.524;2023-12-04T18:20:00;1001.1;;;7.0
79148;BMP280;68562;51.600;6.524;2023-12-04T18:25:00;1001.0;;;7.1
79148;BMP280;68562;51.600;6.524;2023-12-04T18:30:00;1001.1;;;6.9
79148;BMP280;68562;51.600;6.524;2023-12-04T18:35:00;1000.9;;;7.1
79148;BMP280;68562;51.600;6.524;2023-12-04T18:40:01;1000.9;;;7.2
79148;BMP280;68562;51.600;6.524;2023-12-04T18:45:00;1000.8;;;7.1
79148;BMP280;68562;51.600;6.524;2023-12-04T18:50:01;1000.7;;;7.1
79148;BMP280;68562;51.600;6.524;2023-12-04T18:55:00;1000.7;;;7.3
79148;BMP280;68562;51.600;6.524;2023-12-04T19:00:00;1000.7;;;7.2
79148;BMP280;68562;51.600;6.524;2023-12-04T19:05:00;1000.6;;;7.0
79148;BMP280;68562;51.600;6.524;2023-12-04T19:10:00;1000.6;;;7.1
79148;BMP280;68562;51.600;6.524;2023-12-04T19:15:00;1000.6;;;7.4
79148;BMP280;68562;51.600;6.524;2023-12-04T19:20:00;1000.5;;;7.3
79148;BMP280;68562;51.600;6.524;2023-12-04T19:25:00;1000.4;;;7.4
79148;BMP280;68562;51.600;6.524;2023-12-04T19:30:00;1000.4;;;7.1
79148;BMP280;68562;51.600;6.524;2023-12-04T19:35:00;1000.3;;;7.3
79148;BMP280;68562;51.600;6.524;2023-12-04T19:40:00;1000.3;;;7.4
79148;BMP280;68562;51.600;6.524;2023-12-04T19:45:00;1000.2;;;7.6
79148;BMP280;68562;51.600;6.524;2023-12-04T19:50:00;1000.1;;;7.6
79148;BMP280;68562;51.600;6.524;2023-12-04T19:55:00;1000.1;;;7.7
79148;BMP280;68562;51.600;6.524;2023-12-04T20:00:00;1000.1;;;7.8
79148;BMP280;68562;51.600;6.524;2023-12-04T20:05:00;1000.0;;;7.9
79148;BMP280;68562;51.600;6.524;2023-12-04T20:10:00;999.9;;;7.9
79148;BMP280;68562;51.600;6.524;2023-12-04T20:15:00;999.8;;;7.9
79148;BMP280;68562;51.600;6.524;2023-12-04T20:20:00;999.7;;;8.0
79148;BMP280;68562;51.600;6.524;2023-12-04T20:25:00;999.7;;;8.0
79148;BMP280;68562;51.600;6.524;2023-12-04T20:30:00;999.7;;;8.0
79148;BMP280;68562;51.600;6.524;2023-12-04T20:35:00;999.7;;;8.0
79148;BMP280;68562;51.600;6.524;2023-12-04T20:40:00;999.6;;;7.9
79148;BMP280;68562;51.600;6.524;2023-12-04T20:45:00;999.6;;;8.0
79148;BMP280;68562;51.600;6.524;2023-12-04T20:50:00;999.6;;;8.0
79148;BMP280;68562;51.600;6.524;2023-12-04T20:55:00;999.6;;;8.1
79148;BMP280;68562;51.600;6.524;2023-12-04T21:00:00;999.5;;;8.0
79148;BMP280;68562;51.600;6.524;2023-12-04T21:05:00;999.4;;;8.0
79148;BMP280;68562;51.600;6.524;2023-12-04T21:10:00;999.4;;;8.1
79148;BMP280;68562;51.600;6.524;2023-12-04T21:15:00;999.3;;;8.1
79148;BMP280;68562;51.600;6.524;2023-12-04T21:20:00;999.3;;;8.1
79148;BMP280;68562;51.600;6.524;2023-12-04T21:25:00;999.3;;;7.9
79148;BMP280;68562;51.600;6.524;2023-12-04T21:30:00;999.3;;;7.9
79148;BMP280;68562;51.600;6.524;2023-12-04T21:35:00;999.2;;;7.9
79148;BMP280;68562;51.600;6.524;2023-12-04T21:40:00;999.2;;;8.0
79148;BMP280;68562;51.600;6.524;2023-12-04T21:45:00;999.2;;;8.1
79148;BMP280;68562;51.600;6.524;2023-12-04T21:50:00;999.1;;;8.0
79148;BMP280;68562;51.600;6.524;2023-12-04T21:55:00;999.1;;;8.1
79148;BMP280;68562;51.600;6.524;2023-12-04T22:00:00;999.0;;;8.0
79148;BMP280;68562;51.600;6.524;2023-12-04T22:05:00;999.0;;;8.1
79148;BMP280;68562;51.600;6.524;2023-12-04T22:10:00;998.9;;;8.2
79148;BMP280;68562;51.600;6.524;2023-12-04T22:15:00;998.8;;;8.2
79148;BMP280;68562;51.600;6.524;2023-12-04T22:20:00;998.9;;;8.2
79148;BMP280;68562;51.600;6.524;2023-12-04T22:25:00;998.7;;;8.1
79148;BMP280;68562;51.600;6.524;2023-12-04T22:30:00;998.8;;;8.2
79148;BMP280;68562;51.600;6.524;2023-12-04T22:35:00;998.7;;;8.2
79148;BMP280;68562;51.600;6.524;2023-12-04T22:40:00;998.8;;;8.2
79148;BMP280;68562;51.600;6.524;2023-12-04T22:45:00;998.7;;;8.2
79148;BMP280;68562;51.600;6.524;2023-12-04T22:50:00;998.6;;;8.4
79148;BMP280;68562;51.600;6.524;2023-12-04T22:55:00;998.6;;;8.4
79148;BMP280;68562;51.600;6.524;2023-12-04T23:00:00;998.6;;;8.4
79148;BMP280;68562;51.600;6.524;2023-12-04T23:05:00;998.6;;;8.5
79148;BMP280;68562;51.600;6.524;2023-12-04T23:10:00;998.6;;;8.6
79148;BMP280;68562;51.600;6.524;2023-12-04T23:15:00;998.5;;;8.5
79148;BMP280;68562;51.600;6.524;2023-12-04T23:20:00;998.6;;;8.6
79148;BMP280;68562;51.600;6.524;2023-12-04T23:25:00;998.5;;;8.6
79148;BMP280;68562;51.600;6.524;2023-12-04T23:30:00;998.5;;;8.6
79148;BMP280;68562;51.600;6.524;2023-12-04T23:35:00;998.5;;;8.6
79148;BMP280;68562;51.600;6.524;2023-12-04T23:40:00;998.5;;;8.8
79148;BMP280;68562;51.600;6.524;2023-12-04T23:45:00;998.5;;;8.8
79148;BMP280;68562;51.600;6.524;2023-12-04T23:50:00;998.4;;;8.8
79148;BMP280;68562;51.600;6.524;2023-12-04T23:55:00;998.3;;;8.9
